createdAt,value
2018-12-04T02:11:19.862Z,100625.84
2018-12-04T02:13:48.012Z,100634.58
2018-12-04T02:16:16.165Z,100645.27
2018-12-04T02:18:44.403Z,100651.97
2018-12-04T02:21:12.745Z,100653.65
2018-12-04T02:23:40.934Z,100657.34
2018-12-04T02:26:09.221Z,100661.66
2018-12-04T02:28:41.573Z,100665.48
2018-12-04T02:31:10.719Z,100671.00
2018-12-04T02:33:38.980Z,100680.58
2018-12-04T02:36:07.225Z,100685.97
2018-12-04T02:38:35.919Z,100691.95
2018-12-04T02:41:04.204Z,100693.27
2018-12-04T02:43:32.450Z,100688.02
2018-12-04T02:46:00.727Z,100693.52
2018-12-04T02:48:29.045Z,100698.42
2018-12-04T02:50:57.286Z,100695.06
2018-12-04T02:53:25.469Z,100708.23
2018-12-04T02:55:54.374Z,100707.77
2018-12-04T02:58:22.538Z,100707.17
2018-12-04T03:00:50.798Z,100710.53
2018-12-04T03:03:18.977Z,100722.75
2018-12-04T03:05:47.169Z,100723.23
2018-12-04T03:08:15.371Z,100731.61
2018-12-04T03:10:43.587Z,100732.08
2018-12-04T03:13:12.273Z,100742.14
2018-12-04T03:15:40.467Z,100748.38
2018-12-04T03:18:08.890Z,100750.28
2018-12-04T03:20:37.029Z,100756.50
2018-12-04T03:23:05.653Z,100761.77
2018-12-04T03:25:33.813Z,100768.84
2018-12-04T03:28:02.051Z,100769.67
2018-12-04T03:30:30.437Z,100776.63
2018-12-04T03:32:58.847Z,100778.78
2018-12-04T03:35:27.109Z,100780.58
2018-12-04T03:37:55.373Z,100787.16
2018-12-04T03:40:23.631Z,100793.75
2018-12-04T03:42:52.209Z,100794.95
2018-12-04T03:45:20.537Z,100800.11
2018-12-04T03:47:48.877Z,100801.80
2018-12-04T03:50:17.058Z,100804.42
2018-12-04T03:52:45.371Z,100818.33
2018-12-04T03:55:13.602Z,100826.59
2018-12-04T03:57:42.101Z,100826.23
2018-12-04T04:00:10.676Z,100826.09
2018-12-04T04:02:38.922Z,100822.64
2018-12-04T04:05:07.222Z,100826.59
2018-12-04T04:07:35.707Z,100830.55
2018-12-04T04:10:05.079Z,100829.70
2018-12-04T04:12:33.382Z,100828.14
2018-12-04T04:15:01.633Z,100830.05
2018-12-04T04:17:30.061Z,100826.09
2018-12-04T04:19:58.414Z,100833.63
2018-12-04T04:22:26.688Z,100836.63
2018-12-04T04:24:54.854Z,100845.38
2018-12-04T04:27:23.009Z,100855.08
2018-12-04T04:29:52.067Z,100864.19
2018-12-04T04:32:20.347Z,100872.93
2018-12-04T04:34:48.582Z,100879.52
2018-12-04T04:37:16.765Z,100875.67
2018-12-04T04:39:45.013Z,100885.48
2018-12-04T04:42:14.262Z,100888.96
2018-12-04T04:44:42.516Z,100890.28
2018-12-04T04:47:10.761Z,100893.28
2018-12-04T04:49:39.078Z,100908.14
2018-12-04T04:52:07.410Z,100911.61
2018-12-04T04:54:36.354Z,100925.63
2018-12-04T04:57:04.659Z,100930.90
2018-12-04T04:59:32.927Z,100935.95
2018-12-04T05:02:01.317Z,100928.27
2018-12-04T05:04:29.725Z,100933.17
2018-12-04T05:06:57.896Z,100936.64
2018-12-04T05:09:26.201Z,100929.95
2018-12-04T05:11:54.346Z,100937.48
2018-12-04T05:14:23.122Z,100941.80
2018-12-04T05:16:51.437Z,100944.08
2018-12-04T05:19:20.193Z,100953.66
2018-12-04T05:21:48.494Z,100964.20
2018-12-04T05:24:17.489Z,100968.52
2018-12-04T05:26:45.732Z,100972.00
2018-12-04T05:29:13.956Z,100979.06
2018-12-04T05:31:42.200Z,100984.33
2018-12-04T05:34:10.463Z,100992.81
2018-12-04T05:36:38.701Z,100994.24
2018-12-04T05:39:07.969Z,100999.98
2018-12-04T05:41:36.890Z,101008.48
2018-12-04T05:44:05.210Z,101003.79
2018-12-04T05:46:33.379Z,101013.59
2018-12-04T05:49:01.694Z,101018.97
2018-12-04T05:51:30.481Z,101024.71
2018-12-04T05:53:59.586Z,101029.61
2018-12-04T05:56:28.337Z,101041.94
2018-12-04T05:58:56.605Z,101043.77
2018-12-04T06:01:25.063Z,101051.16
2018-12-04T06:03:53.253Z,101058.73
2018-12-04T06:06:21.545Z,101061.95
2018-12-04T06:08:49.725Z,101068.27
2018-12-04T06:11:17.988Z,101071.37
2018-12-04T06:13:46.358Z,101083.33
2018-12-04T06:16:14.904Z,101092.08
2018-12-04T06:18:43.141Z,101100.35
2018-12-04T06:21:11.508Z,101113.42
2018-12-04T06:23:40.412Z,101106.83
2018-12-04T06:26:08.585Z,101113.79
2018-12-04T06:28:36.841Z,101127.27
2018-12-04T06:31:04.985Z,101132.34
2018-12-04T06:33:33.297Z,101129.45
2018-12-04T06:36:01.573Z,101137.92
2018-12-04T06:38:29.868Z,101139.17
2018-12-04T06:40:58.101Z,101159.50
2018-12-04T06:43:26.285Z,101154.47
2018-12-04T06:45:54.464Z,101166.69
2018-12-04T06:48:22.709Z,101172.53
2018-12-04T06:50:50.914Z,101177.62
2018-12-04T06:53:19.089Z,101184.41
2018-12-04T06:55:47.775Z,101194.20
2018-12-04T06:58:16.632Z,101196.08
2018-12-04T07:00:44.933Z,101202.66
2018-12-04T07:03:13.209Z,101208.91
2018-12-04T07:05:41.496Z,101202.34
2018-12-04T07:08:09.645Z,101208.55
2018-12-04T07:10:37.931Z,101214.19
2018-12-04T07:13:06.105Z,101218.61
2018-12-04T07:15:34.382Z,101226.88
2018-12-04T07:18:02.568Z,101232.15
2018-12-04T07:20:30.982Z,101232.52
2018-12-04T07:22:59.163Z,101242.11
2018-12-04T07:25:27.348Z,101251.70
2018-12-04T07:27:55.558Z,101254.89
2018-12-04T07:30:23.996Z,101260.06
2018-12-04T07:32:52.151Z,101267.86
2018-12-04T07:35:20.385Z,101280.08
2018-12-04T07:37:48.709Z,101276.98
2018-12-04T07:40:16.947Z,101283.94
2018-12-04T07:42:45.200Z,101292.45
2018-12-04T07:45:13.562Z,101288.88
2018-12-04T07:47:41.876Z,101306.64
2018-12-04T07:50:10.191Z,101306.27
2018-12-04T07:52:38.432Z,101312.28
2018-12-04T07:55:06.846Z,101329.77
2018-12-04T07:57:35.216Z,101338.79
2018-12-04T08:00:04.187Z,101341.42
2018-12-04T08:02:32.357Z,101339.16
2018-12-04T08:05:00.551Z,101345.63
2018-12-04T08:07:28.905Z,101349.47
2018-12-04T08:09:57.854Z,101353.33
2018-12-04T08:12:26.069Z,101359.72
2018-12-04T08:14:54.278Z,101357.92
2018-12-04T08:17:22.469Z,101366.77
2018-12-04T08:19:50.672Z,101377.88
2018-12-04T08:22:18.861Z,101391.98
2018-12-04T08:24:47.149Z,101382.30
2018-12-04T08:27:20.396Z,101392.83
2018-12-04T08:29:48.581Z,101393.67
2018-12-04T08:32:16.878Z,101397.44
2018-12-04T08:34:45.108Z,101404.77
2018-12-04T08:37:13.314Z,101412.48
2018-12-04T08:39:41.577Z,101409.75
2018-12-04T08:42:09.762Z,101413.23
2018-12-04T08:44:38.606Z,101422.22
2018-12-04T08:47:06.825Z,101425.61
2018-12-04T08:49:35.027Z,101429.55
2018-12-04T08:52:03.818Z,101437.45
2018-12-04T08:54:32.683Z,101441.41
2018-12-04T08:57:01.523Z,101450.53
2018-12-04T08:59:29.753Z,101456.65
2018-12-04T09:01:57.938Z,101464.55
2018-12-04T09:04:26.189Z,101472.27
2018-12-04T09:06:54.458Z,101471.32
2018-12-04T09:09:22.818Z,101482.70
2018-12-04T09:11:51.251Z,101495.41
2018-12-04T09:14:19.525Z,101503.31
2018-12-04T09:16:48.709Z,101500.11
2018-12-04T09:19:17.070Z,101505.20
2018-12-04T09:21:45.469Z,101509.84
2018-12-04T09:24:13.666Z,101515.77
2018-12-04T09:26:42.040Z,101526.58
2018-12-04T09:29:10.324Z,101526.38
2018-12-04T09:31:38.666Z,101531.96
2018-12-04T09:34:06.957Z,101540.80
2018-12-04T09:36:35.228Z,101542.78
2018-12-04T09:39:05.132Z,101550.28
2018-12-04T09:41:33.313Z,101558.28
2018-12-04T09:44:01.720Z,101559.20
2018-12-04T09:46:29.984Z,101562.69
2018-12-04T09:48:58.403Z,101564.82
2018-12-04T09:51:26.586Z,101568.78
2018-12-04T09:53:54.773Z,101571.98
2018-12-04T09:56:23.072Z,101578.16
2018-12-04T09:58:51.486Z,101580.79
2018-12-04T10:01:19.731Z,101580.60
2018-12-04T10:03:48.046Z,101586.88
2018-12-04T10:06:16.424Z,101591.48
2018-12-04T10:08:44.778Z,101594.88
2018-12-04T10:11:12.938Z,101592.17
2018-12-04T10:13:41.440Z,101605.89
2018-12-04T10:16:09.686Z,101603.53
2018-12-04T10:18:37.945Z,101599.38
2018-12-04T10:21:06.256Z,101604.38
2018-12-04T10:23:34.629Z,101596.64
2018-12-04T10:26:03.007Z,101616.85
2018-12-04T10:28:31.208Z,101614.48
2018-12-04T10:31:04.645Z,101611.66
2018-12-04T10:33:32.858Z,101620.23
2018-12-04T10:36:01.037Z,101624.02
2018-12-04T10:38:29.433Z,101617.14
2018-12-04T10:40:57.724Z,101611.86
2018-12-04T10:43:25.854Z,101631.08
2018-12-04T10:45:54.126Z,101631.73
2018-12-04T10:48:22.282Z,101631.02
2018-12-04T10:50:50.593Z,101630.84
2018-12-04T10:53:18.798Z,101632.63
2018-12-04T10:55:47.075Z,101633.57
2018-12-04T10:58:18.337Z,101640.82
2018-12-04T11:00:51.941Z,101640.50
2018-12-04T11:03:24.276Z,101641.62
2018-12-04T11:05:52.455Z,101647.19
2018-12-04T11:08:20.630Z,101654.53
2018-12-04T11:10:47.831Z,101650.20
2018-12-04T11:13:16.082Z,101651.98
2018-12-04T11:15:44.281Z,101654.34
2018-12-04T11:18:12.489Z,101660.14
2018-12-04T11:20:40.726Z,101662.59
2018-12-04T11:23:09.052Z,101666.17
2018-12-04T11:25:37.221Z,101672.39
2018-12-04T11:28:05.484Z,101676.91
2018-12-04T11:30:33.762Z,101684.11
2018-12-04T11:33:02.018Z,101678.83
2018-12-04T11:35:30.185Z,101675.44
2018-12-04T11:37:58.352Z,101675.44
2018-12-04T11:40:26.558Z,101687.31
2018-12-04T11:42:54.809Z,101685.80
2018-12-04T11:45:23.324Z,101687.84
2018-12-04T11:47:51.652Z,101689.44
2018-12-04T11:50:19.975Z,101687.45
2018-12-04T11:52:48.157Z,101690.84
2018-12-04T11:55:16.409Z,101697.45
2018-12-04T11:57:44.671Z,101702.34
2018-12-04T12:00:19.318Z,101696.59
2018-12-04T12:02:48.421Z,101697.73
2018-12-04T12:05:16.688Z,101701.16
2018-12-04T12:07:44.885Z,101693.44
2018-12-04T12:10:13.120Z,101699.28
2018-12-04T12:12:41.380Z,101691.37
2018-12-04T12:15:10.144Z,101694.75
2018-12-04T12:17:38.525Z,101696.13
2018-12-04T12:20:08.005Z,101699.43
2018-12-04T12:22:36.269Z,101703.39
2018-12-04T12:25:05.525Z,101708.00
2018-12-04T12:27:33.849Z,101703.89
2018-12-04T12:30:02.179Z,101712.09
2018-12-04T12:32:30.436Z,101714.54
2018-12-04T12:34:58.633Z,101716.52
2018-12-04T12:37:26.935Z,101714.09
2018-12-04T12:39:55.172Z,101723.52
2018-12-04T12:42:23.358Z,101720.59
2018-12-04T12:44:51.657Z,101732.17
2018-12-04T12:47:19.945Z,101733.50
2018-12-04T12:49:48.094Z,101741.78
2018-12-04T12:52:16.362Z,101744.52
2018-12-04T12:54:44.625Z,101751.95
2018-12-04T12:57:12.901Z,101749.41
2018-12-04T12:59:41.721Z,101751.95
2018-12-04T13:02:09.983Z,101761.66
2018-12-04T13:04:38.213Z,101764.77
2018-12-04T13:07:06.510Z,101754.22
2018-12-04T13:09:34.676Z,101758.92
2018-12-04T13:12:03.028Z,101768.87
2018-12-04T13:14:31.361Z,101771.39
2018-12-04T13:16:59.797Z,101772.70
2018-12-04T13:19:28.093Z,101776.01
2018-12-04T13:21:56.248Z,101779.21
2018-12-04T13:24:24.563Z,101771.30
2018-12-04T13:26:52.852Z,101775.63
2018-12-04T13:29:21.162Z,101778.65
2018-12-04T13:31:49.540Z,101787.50
2018-12-04T13:34:17.811Z,101784.71
2018-12-04T13:36:46.036Z,101783.48
2018-12-04T13:39:14.246Z,101787.34
2018-12-04T13:41:42.576Z,101792.22
2018-12-04T13:44:11.177Z,101797.66
2018-12-04T13:46:39.377Z,101801.89
2018-12-04T13:49:07.642Z,101801.39
2018-12-04T13:51:36.709Z,101804.21
2018-12-04T13:54:05.422Z,101809.20
2018-12-04T13:56:33.668Z,101818.88
2018-12-04T13:59:02.330Z,101823.78
2018-12-04T14:01:30.507Z,101825.19
2018-12-04T14:03:58.726Z,101827.92
2018-12-04T14:06:27.141Z,101827.17
2018-12-04T14:08:55.415Z,101839.29
2018-12-04T14:11:23.657Z,101842.16
2018-12-04T14:13:51.946Z,101839.32
2018-12-04T14:16:20.119Z,101848.86
2018-12-04T14:18:48.474Z,101850.30
2018-12-04T14:21:16.682Z,101857.83
2018-12-04T14:23:44.921Z,101854.36
2018-12-04T14:26:13.377Z,101858.30
2018-12-04T14:28:41.579Z,101866.02
2018-12-04T14:31:10.239Z,101867.81
2018-12-04T14:33:38.533Z,101870.34
2018-12-04T14:36:06.849Z,101872.89
2018-12-04T14:38:35.052Z,101876.41
2018-12-04T14:41:03.369Z,101873.39
2018-12-04T14:43:31.565Z,101872.98
2018-12-04T14:45:59.836Z,101873.36
2018-12-04T14:48:28.246Z,101879.36
2018-12-04T14:50:56.533Z,101877.44
2018-12-04T14:53:25.505Z,101875.73
2018-12-04T14:55:53.795Z,101885.52
2018-12-04T14:58:22.026Z,101890.95
2018-12-04T15:00:50.869Z,101893.19
2018-12-04T15:03:19.126Z,101897.01
2018-12-04T15:05:47.367Z,101894.36
2018-12-04T15:08:15.643Z,101895.45
2018-12-04T15:10:43.920Z,101898.50
2018-12-04T15:13:12.238Z,101901.96
2018-12-04T15:15:40.577Z,101908.95
2018-12-04T15:18:08.862Z,101905.83
2018-12-04T15:20:37.061Z,101908.70
2018-12-04T15:23:05.245Z,101916.38
2018-12-04T15:25:34.386Z,101932.71
2018-12-04T15:28:02.686Z,101928.73
2018-12-04T15:30:31.131Z,101934.92
2018-12-04T15:32:59.576Z,101936.55
2018-12-04T15:35:27.898Z,101945.56
2018-12-04T15:37:56.161Z,101941.54
2018-12-04T15:40:24.349Z,101949.73
2018-12-04T15:42:52.723Z,101954.61
2018-12-04T15:45:21.035Z,101957.05
2018-12-04T15:47:49.319Z,101961.14
2018-12-04T15:50:18.600Z,101965.78
2018-12-04T15:52:46.938Z,101963.88
2018-12-04T15:55:15.357Z,101970.20
2018-12-04T15:57:43.620Z,101970.90
2018-12-04T16:00:11.954Z,101965.40
2018-12-04T16:02:40.305Z,101974.00
2018-12-04T16:05:09.761Z,101978.34
2018-12-04T16:07:38.312Z,101985.13
2018-12-04T16:10:10.621Z,101982.67
2018-12-04T16:12:38.876Z,101989.51
2018-12-04T16:15:07.276Z,101991.68
2018-12-04T16:17:35.424Z,101994.84
2018-12-04T16:20:04.130Z,102001.95
2018-12-04T16:22:32.510Z,101999.00
2018-12-04T16:25:00.684Z,102006.11
2018-12-04T16:27:29.005Z,102003.70
2018-12-04T16:29:58.295Z,101997.77
2018-12-04T16:32:26.689Z,102010.97
2018-12-04T16:34:54.910Z,102011.05
2018-12-04T16:37:23.097Z,102011.51
2018-12-04T16:39:51.385Z,102010.73
2018-12-04T16:42:19.554Z,102013.11
2018-12-04T16:44:47.938Z,102019.84
2018-12-04T16:47:16.522Z,102022.83
2018-12-04T16:49:44.858Z,102019.46
2018-12-04T16:52:13.029Z,102015.16
2018-12-04T16:54:41.206Z,102013.46
2018-12-04T16:57:09.888Z,102017.61
2018-12-04T16:59:38.044Z,102020.52
2018-12-04T17:02:06.272Z,102029.50
2018-12-04T17:04:34.533Z,102029.58
2018-12-04T17:07:02.718Z,102024.60
2018-12-04T17:09:30.980Z,102020.58
2018-12-04T17:11:59.383Z,102026.69
2018-12-04T17:14:27.660Z,102036.34
2018-12-04T17:16:56.486Z,102034.17
2018-12-04T17:19:27.489Z,102033.45
2018-12-04T17:21:56.276Z,102039.38
2018-12-04T17:24:24.577Z,102044.56
2018-12-04T17:26:52.926Z,102046.84
2018-12-04T17:29:21.077Z,102045.83
2018-12-04T17:31:49.248Z,102049.23
2018-12-04T17:34:18.227Z,102052.45
2018-12-04T17:36:46.413Z,102056.56
2018-12-04T17:39:14.623Z,102053.41
2018-12-04T17:41:42.933Z,102053.62
2018-12-04T17:44:11.085Z,102058.73
2018-12-04T17:46:39.339Z,102052.39
2018-12-04T17:49:07.609Z,102056.52
2018-12-04T17:51:35.821Z,102055.84
2018-12-04T17:54:04.157Z,102061.71
2018-12-04T17:56:32.309Z,102067.75
2018-12-04T17:59:00.513Z,102070.91
2018-12-04T18:01:28.882Z,102066.97
2018-12-04T18:03:57.049Z,102070.37
2018-12-04T18:06:25.737Z,102071.30
2018-12-04T18:08:53.897Z,102066.18
2018-12-04T18:11:22.170Z,102070.43
2018-12-04T18:13:50.358Z,102064.53
2018-12-04T18:16:18.850Z,102076.66
2018-12-04T18:18:47.294Z,102079.67
2018-12-04T18:21:15.482Z,102072.65
2018-12-04T18:23:43.682Z,102079.11
2018-12-04T18:26:11.881Z,102086.92
2018-12-04T18:28:40.157Z,102087.09
2018-12-04T18:31:09.406Z,102091.11
2018-12-04T18:33:37.590Z,102090.64
2018-12-04T18:36:04.732Z,102092.95
2018-12-04T18:38:33.818Z,102095.38
2018-12-04T18:41:02.010Z,102090.89
2018-12-04T18:43:30.295Z,102087.74
2018-12-04T18:45:59.068Z,102089.31
2018-12-04T18:48:27.361Z,102100.38
2018-12-04T18:50:55.745Z,102107.59
2018-12-04T18:53:24.210Z,102111.73
2018-12-04T18:55:52.449Z,102110.54
2018-12-04T18:58:20.677Z,102112.77
2018-12-04T19:00:50.016Z,102110.64
2018-12-04T19:03:18.956Z,102110.30
2018-12-04T19:05:47.144Z,102111.29
2018-12-04T19:08:15.301Z,102110.77
2018-12-04T19:10:43.727Z,102114.02
2018-12-04T19:13:12.850Z,102116.45
2018-12-04T19:15:41.230Z,102123.61
2018-12-04T19:18:09.611Z,102130.27
2018-12-04T19:20:38.042Z,102132.83
2018-12-04T19:23:06.788Z,102135.86
2018-12-04T19:25:35.089Z,102142.36
2018-12-04T19:28:03.559Z,102134.74
2018-12-04T19:30:31.771Z,102137.20
2018-12-04T19:33:00.014Z,102144.16
2018-12-04T19:35:28.244Z,102137.53
2018-12-04T19:37:56.449Z,102146.20
2018-12-04T19:40:24.735Z,102145.87
2018-12-04T19:42:52.950Z,102143.94
2018-12-04T19:45:21.169Z,102147.08
2018-12-04T19:47:49.457Z,102152.06
2018-12-04T19:50:17.759Z,102154.03
2018-12-04T19:52:45.991Z,102162.77
2018-12-04T19:55:14.395Z,102162.70
2018-12-04T19:57:42.640Z,102166.18
2018-12-04T20:00:11.292Z,102161.52
2018-12-04T20:02:39.556Z,102160.89
2018-12-04T20:05:07.949Z,102165.47
2018-12-04T20:07:36.173Z,102174.66
2018-12-04T20:10:04.749Z,102172.16
2018-12-04T20:12:33.124Z,102173.63
2018-12-04T20:15:01.300Z,102175.01
2018-12-04T20:17:29.577Z,102172.97
2018-12-04T20:19:57.728Z,102178.61
2018-12-04T20:22:25.870Z,102178.28
2018-12-04T20:24:54.037Z,102178.80
2018-12-04T20:27:23.108Z,102182.73
2018-12-04T20:29:51.270Z,102195.45
2018-12-04T20:32:19.459Z,102194.20
2018-12-04T20:34:48.618Z,102198.14
2018-12-04T20:37:16.757Z,102199.00
2018-12-04T20:39:45.061Z,102201.16
2018-12-04T20:42:13.201Z,102202.94
2018-12-04T20:44:41.342Z,102207.33
2018-12-04T20:47:09.525Z,102214.80
2018-12-04T20:49:38.256Z,102214.80
2018-12-04T20:52:06.449Z,102214.41
2018-12-04T20:54:34.618Z,102212.12
2018-12-04T20:57:02.887Z,102215.59
2018-12-04T20:59:31.106Z,102221.64
2018-12-04T21:01:59.357Z,102210.75
2018-12-04T21:04:27.496Z,102215.08
2018-12-04T21:06:55.725Z,102222.55
2018-12-04T21:09:24.042Z,102219.08
2018-12-04T21:11:52.208Z,102220.57
2018-12-04T21:14:20.429Z,102223.98
2018-12-04T21:16:48.642Z,102217.42
2018-12-04T21:19:16.764Z,102222.73
2018-12-04T21:21:44.916Z,102224.51
2018-12-04T21:24:13.049Z,102223.59
2018-12-04T21:26:41.262Z,102224.78
2018-12-04T21:29:14.794Z,102218.22
2018-12-04T21:31:48.380Z,102215.14
2018-12-04T21:34:21.886Z,102225.23
2018-12-04T21:36:55.441Z,102216.97
2018-12-04T21:39:29.782Z,102210.53
2018-12-04T21:42:03.441Z,102206.53
2018-12-04T21:44:37.234Z,102208.00
2018-12-04T21:47:11.109Z,102201.69
2018-12-04T21:49:40.176Z,102204.43
2018-12-04T21:52:08.452Z,102209.80
2018-12-04T21:54:36.754Z,102213.03
2018-12-04T21:57:04.965Z,102210.47
2018-12-04T21:59:33.146Z,102209.95
2018-12-04T22:02:01.725Z,102218.06
2018-12-04T22:04:30.434Z,102223.19
2018-12-04T22:06:58.893Z,102225.70
2018-12-04T22:09:27.321Z,102226.48
2018-12-04T22:11:56.221Z,102226.55
2018-12-04T22:14:24.510Z,102226.61
2018-12-04T22:16:52.706Z,102227.31
2018-12-04T22:19:21.034Z,102227.12
2018-12-04T22:21:49.188Z,102230.95
2018-12-04T22:24:17.445Z,102226.03
2018-12-04T22:26:45.701Z,102231.11
2018-12-04T22:29:13.947Z,102226.98
2018-12-04T22:31:42.956Z,102232.39
2018-12-04T22:34:11.226Z,102231.31
2018-12-04T22:36:39.449Z,102232.88
2018-12-04T22:39:09.581Z,102230.77
2018-12-04T22:41:38.087Z,102237.32
2018-12-04T22:44:06.379Z,102236.47
2018-12-04T22:46:34.826Z,102229.57
2018-12-04T22:49:03.619Z,102233.45
2018-12-04T22:51:31.900Z,102238.58
2018-12-04T22:54:00.072Z,102233.67
2018-12-04T22:56:28.339Z,102238.27
2018-12-04T22:58:56.500Z,102241.12
2018-12-04T23:01:41.385Z,102237.02
2018-12-04T23:04:09.978Z,102238.58
2018-12-04T23:06:38.320Z,102240.52
2018-12-04T23:09:10.210Z,102242.16
2018-12-04T23:11:39.399Z,102232.47
2018-12-04T23:14:08.062Z,102234.09
2018-12-04T23:16:36.440Z,102234.94
2018-12-04T23:19:05.166Z,102229.64
2018-12-04T23:21:33.402Z,102226.05
2018-12-04T23:24:01.722Z,102224.22
2018-12-04T23:26:29.980Z,102227.30
2018-12-04T23:28:58.234Z,102236.94
2018-12-04T23:31:26.500Z,102241.27
2018-12-04T23:33:54.698Z,102237.67
2018-12-04T23:36:22.873Z,102234.98
2018-12-04T23:38:51.373Z,102237.22
2018-12-04T23:41:19.747Z,102234.59
2018-12-04T23:43:48.105Z,102236.94
2018-12-04T23:46:16.247Z,102233.39
2018-12-04T23:48:44.497Z,102229.92
2018-12-04T23:51:12.664Z,102226.05
2018-12-04T23:53:40.964Z,102234.38
2018-12-04T23:56:09.117Z,102221.71
2018-12-04T23:58:37.856Z,102223.81
